createdAt,value
2023-04-18T00:01:46.664Z,32.80
2023-04-18T00:04:14.765Z,29.83
2023-04-18T00:06:42.357Z,21.50
2023-04-18T00:09:09.519Z,23.95
2023-04-18T00:11:36.785Z,26.40
2023-04-18T00:14:04.493Z,25.52
2023-04-18T00:16:32.581Z,22.77
2023-04-18T00:18:59.914Z,27.92
2023-04-18T00:21:27.096Z,21.70
2023-04-18T00:23:54.232Z,25.35
2023-04-18T00:26:21.367Z,23.98
2023-04-18T00:28:49.223Z,27.30
2023-04-18T00:31:18.036Z,24.85
2023-04-18T00:33:45.188Z,24.10
2023-04-18T00:36:12.339Z,28.92
2023-04-18T00:38:41.921Z,21.83
2023-04-18T00:41:09.045Z,27.08
2023-04-18T00:43:37.256Z,34.85
2023-04-18T00:46:04.547Z,32.75
2023-04-18T00:48:31.915Z,32.40
2023-04-18T00:51:00.500Z,39.58
2023-04-18T00:53:28.713Z,37.75
2023-04-18T00:55:56.030Z,36.53
2023-04-18T00:58:24.366Z,22.20
2023-04-18T01:00:52.327Z,30.50
2023-04-18T01:03:20.013Z,26.48
2023-04-18T01:05:47.374Z,23.85
2023-04-18T01:08:14.849Z,22.98
2023-04-18T01:10:42.449Z,25.33
2023-04-18T01:13:17.199Z,22.48
2023-04-18T01:15:47.092Z,27.08
2023-04-18T01:18:20.913Z,24.08
2023-04-18T01:20:50.359Z,28.45
2023-04-18T01:23:21.422Z,31.67
2023-04-18T01:25:51.666Z,31.13
2023-04-18T01:28:21.605Z,33.83
2023-04-18T01:30:49.384Z,29.80
2023-04-18T01:33:16.687Z,31.70
2023-04-18T01:35:46.893Z,39.65
2023-04-18T01:38:14.027Z,25.52
2023-04-18T01:40:41.162Z,26.77
2023-04-18T01:43:08.290Z,40.22
2023-04-18T01:45:38.205Z,32.30
2023-04-18T01:48:05.673Z,34.47
2023-04-18T01:50:33.687Z,42.58
2023-04-18T01:53:00.980Z,36.40
2023-04-18T01:55:28.266Z,32.78
2023-04-18T01:57:55.555Z,26.90
2023-04-18T02:00:22.876Z,29.23
2023-04-18T02:02:50.607Z,34.72
2023-04-18T02:05:17.986Z,29.08
2023-04-18T02:07:45.622Z,28.10
2023-04-18T02:10:12.776Z,25.63
2023-04-18T02:12:40.691Z,34.80
2023-04-18T02:15:09.295Z,36.28
2023-04-18T02:17:38.066Z,28.77
2023-04-18T02:20:08.351Z,31.48
2023-04-18T02:22:38.248Z,30.20
2023-04-18T02:25:05.899Z,28.33
2023-04-18T02:27:34.368Z,30.75
2023-04-18T02:30:02.629Z,32.60
2023-04-18T02:32:34.315Z,33.42
2023-04-18T02:35:01.926Z,44.33
2023-04-18T02:37:32.620Z,30.40
2023-04-18T02:39:59.748Z,31.35
2023-04-18T02:42:31.727Z,35.72
2023-04-18T02:45:00.033Z,24.20
2023-04-18T02:47:31.733Z,40.65
2023-04-18T02:50:04.246Z,27.00
2023-04-18T02:52:32.414Z,46.07
2023-04-18T02:54:59.811Z,28.67
2023-04-18T02:57:31.827Z,25.85
2023-04-18T03:00:23.176Z,26.25
2023-04-18T03:03:26.083Z,27.92
2023-04-18T03:06:18.530Z,22.02
2023-04-18T03:08:46.084Z,27.85
2023-04-18T03:11:14.008Z,23.15
2023-04-18T03:13:41.193Z,21.08
2023-04-18T03:16:08.755Z,21.13
2023-04-18T03:18:36.432Z,29.33
2023-04-18T03:21:03.843Z,20.15
2023-04-18T03:23:33.113Z,22.63
2023-04-18T03:26:03.098Z,27.55
2023-04-18T03:28:32.458Z,21.77
2023-04-18T03:31:00.157Z,22.98
2023-04-18T03:33:28.952Z,24.92
2023-04-18T03:36:06.304Z,28.00
2023-04-18T03:38:33.819Z,20.65
2023-04-18T03:41:01.228Z,30.48
2023-04-18T03:43:33.832Z,31.35
2023-04-18T03:46:02.272Z,38.63
2023-04-18T03:48:29.865Z,40.00
2023-04-18T03:51:01.651Z,24.30
2023-04-18T03:53:29.188Z,32.45
2023-04-18T03:55:56.627Z,41.60
2023-04-18T03:58:31.412Z,42.28
2023-04-18T04:01:01.194Z,31.85
2023-04-18T04:03:30.428Z,27.13
2023-04-18T04:05:57.701Z,30.08
2023-04-18T04:08:26.984Z,23.25
2023-04-18T04:10:55.286Z,26.92
2023-04-18T04:13:23.674Z,29.20
2023-04-18T04:15:51.854Z,32.90
2023-04-18T04:18:19.100Z,29.35
2023-04-18T04:20:47.956Z,24.95
2023-04-18T04:23:38.161Z,29.60
2023-04-18T04:26:05.707Z,24.85
2023-04-18T04:28:43.000Z,23.73
2023-04-18T04:31:11.478Z,28.08
2023-04-18T04:33:41.138Z,25.77
2023-04-18T04:36:18.839Z,21.85
2023-04-18T04:38:47.742Z,19.23
2023-04-18T04:41:16.017Z,29.35
2023-04-18T04:43:43.523Z,30.10
2023-04-18T04:46:13.877Z,27.45
2023-04-18T04:48:43.357Z,26.65
2023-04-18T04:51:10.570Z,23.95
2023-04-18T04:53:38.008Z,31.80
2023-04-18T04:56:06.132Z,24.23
2023-04-18T04:58:34.489Z,32.03
2023-04-18T05:01:27.712Z,36.95
2023-04-18T05:03:55.091Z,27.35
2023-04-18T05:06:22.878Z,29.92
2023-04-18T05:08:51.152Z,34.65
2023-04-18T05:11:18.778Z,33.92
2023-04-18T05:13:45.953Z,27.45
2023-04-18T05:16:13.234Z,32.05
2023-04-18T05:18:41.517Z,47.47
2023-04-18T05:21:08.668Z,25.05
2023-04-18T05:23:37.255Z,29.23
2023-04-18T05:26:05.823Z,37.63
2023-04-18T05:28:33.287Z,24.77
2023-04-18T05:31:03.498Z,26.88
2023-04-18T05:33:31.828Z,27.17
2023-04-18T05:35:59.341Z,36.15
2023-04-18T05:38:26.592Z,26.90
2023-04-18T05:40:55.834Z,35.75
2023-04-18T05:43:23.594Z,21.65
2023-04-18T05:45:52.730Z,24.52
2023-04-18T05:48:21.502Z,28.42
2023-04-18T05:50:48.835Z,27.70
2023-04-18T05:53:16.045Z,31.58
2023-04-18T05:55:43.373Z,29.92
2023-04-18T05:58:10.660Z,38.17
2023-04-18T06:00:37.850Z,28.73
2023-04-18T06:03:05.835Z,35.30
2023-04-18T06:05:34.807Z,27.58
2023-04-18T06:08:02.089Z,35.55
2023-04-18T06:10:29.795Z,37.88
2023-04-18T06:12:56.996Z,28.63
2023-04-18T06:15:24.906Z,31.13
2023-04-18T06:17:52.195Z,37.97
2023-04-18T06:20:19.658Z,29.60
2023-04-18T06:22:46.850Z,35.70
2023-04-18T06:25:14.052Z,36.70
2023-04-18T06:27:41.306Z,36.40
2023-04-18T06:30:09.022Z,50.40
2023-04-18T06:32:36.331Z,27.33
2023-04-18T06:35:03.857Z,37.75
2023-04-18T06:37:32.787Z,38.03
2023-04-18T06:40:00.222Z,35.60
2023-04-18T06:42:27.463Z,37.63
2023-04-18T06:44:55.158Z,38.20
2023-04-18T06:47:24.243Z,45.55
2023-04-18T06:49:51.448Z,55.72
2023-04-18T06:52:18.600Z,44.42
2023-04-18T06:54:45.751Z,40.70
2023-04-18T06:57:12.976Z,32.22
2023-04-18T06:59:41.485Z,44.28
2023-04-18T07:02:08.733Z,39.15
2023-04-18T07:04:36.062Z,43.40
2023-04-18T07:07:05.241Z,39.08
2023-04-18T07:09:32.673Z,46.47
2023-04-18T07:11:59.867Z,39.38
2023-04-18T07:14:27.448Z,35.15
2023-04-18T07:16:54.653Z,34.92
2023-04-18T07:19:21.952Z,41.60
2023-04-18T07:21:49.158Z,36.72
2023-04-18T07:24:16.626Z,29.17
2023-04-18T07:26:44.118Z,36.20
2023-04-18T07:29:11.231Z,37.17
2023-04-18T07:31:38.364Z,31.83
2023-04-18T07:34:05.874Z,30.52
2023-04-18T07:36:32.999Z,31.83
2023-04-18T07:39:02.154Z,37.80
2023-04-18T07:41:29.613Z,27.75
2023-04-18T07:43:56.890Z,25.52
2023-04-18T07:46:24.218Z,20.38
2023-04-18T07:48:51.431Z,25.42
2023-04-18T07:51:18.690Z,31.25
2023-04-18T07:53:45.877Z,25.83
2023-04-18T07:56:14.569Z,20.30
2023-04-18T07:58:41.848Z,21.55
2023-04-18T08:01:13.627Z,22.85
2023-04-18T08:03:41.901Z,27.88
2023-04-18T08:06:09.996Z,24.85
2023-04-18T08:08:37.386Z,26.08
2023-04-18T08:11:04.603Z,35.53
2023-04-18T08:13:32.057Z,24.58
2023-04-18T08:16:00.042Z,47.80
2023-04-18T08:18:27.374Z,25.58
2023-04-18T08:20:54.598Z,29.63
2023-04-18T08:23:21.898Z,78.28
2023-04-18T08:25:49.425Z,25.98
2023-04-18T08:28:16.637Z,17.48
2023-04-18T08:30:44.200Z,22.85
2023-04-18T08:33:11.419Z,22.35
2023-04-18T08:35:38.637Z,22.08
2023-04-18T08:38:05.876Z,21.20
2023-04-18T08:40:33.415Z,20.92
2023-04-18T08:43:04.955Z,37.78
2023-04-18T08:45:33.534Z,27.58
2023-04-18T08:48:03.263Z,22.23
2023-04-18T08:50:32.077Z,20.40
2023-04-18T08:53:01.554Z,20.52
2023-04-18T08:55:29.041Z,17.53
2023-04-18T08:57:56.588Z,22.23
2023-04-18T09:00:23.991Z,22.80
2023-04-18T09:02:56.860Z,22.10
2023-04-18T09:05:27.619Z,24.58
2023-04-18T09:07:56.336Z,18.67
2023-04-18T09:10:33.521Z,19.88
2023-04-18T09:13:03.401Z,30.95
2023-04-18T09:15:31.322Z,21.50
2023-04-18T09:18:02.441Z,27.75
2023-04-18T09:20:38.294Z,24.10
2023-04-18T09:23:11.000Z,20.42
2023-04-18T09:25:44.438Z,26.92
2023-04-18T09:28:22.684Z,20.65
2023-04-18T09:30:54.639Z,23.85
2023-04-18T09:33:29.595Z,22.92
2023-04-18T09:35:57.381Z,22.27
2023-04-18T09:38:43.508Z,27.30
2023-04-18T09:41:12.676Z,21.35
2023-04-18T09:43:39.952Z,21.58
2023-04-18T09:46:08.922Z,21.23
2023-04-18T09:48:36.591Z,31.48
2023-04-18T09:51:09.438Z,23.58
2023-04-18T09:53:41.024Z,24.25
2023-04-18T09:56:17.156Z,26.30
2023-04-18T09:58:47.590Z,24.83
2023-04-18T10:01:15.321Z,21.20
2023-04-18T10:03:47.446Z,19.65
2023-04-18T10:06:18.319Z,17.10
2023-04-18T10:08:47.970Z,17.35
2023-04-18T10:11:15.836Z,18.80
2023-04-18T10:13:47.925Z,21.40
2023-04-18T10:16:16.995Z,22.67
2023-04-18T10:18:44.493Z,21.17
2023-04-18T10:21:11.890Z,23.15
2023-04-18T10:23:39.960Z,18.73
2023-04-18T10:26:08.588Z,23.02
2023-04-18T10:28:59.118Z,21.25
2023-04-18T10:31:27.928Z,17.90
2023-04-18T10:36:30.312Z,15.13
2023-04-18T10:39:05.898Z,12.32
2023-04-18T10:41:34.380Z,21.40
2023-04-18T10:44:08.727Z,24.13
2023-04-18T10:46:40.893Z,20.02
2023-04-18T10:49:23.919Z,19.38
2023-04-18T10:52:03.523Z,23.63
2023-04-18T10:54:37.651Z,22.27
2023-04-18T10:57:07.717Z,17.80
2023-04-18T10:59:38.826Z,17.63
2023-04-18T11:02:25.688Z,20.75
2023-04-18T11:04:55.601Z,20.95
2023-04-18T11:07:34.077Z,16.05
2023-04-18T11:10:02.113Z,20.60
2023-04-18T11:12:37.063Z,18.20
2023-04-18T11:15:22.973Z,19.08
2023-04-18T11:17:57.804Z,20.73
2023-04-18T11:20:25.080Z,20.98
2023-04-18T11:22:53.708Z,19.90
2023-04-18T11:25:27.645Z,17.45
2023-04-18T11:27:55.908Z,17.20
2023-04-18T11:30:23.354Z,16.70
2023-04-18T11:32:51.768Z,19.95
2023-04-18T11:35:19.162Z,18.55
2023-04-18T11:37:46.355Z,16.70
2023-04-18T11:40:14.431Z,13.20
2023-04-18T11:42:42.182Z,18.00
2023-04-18T11:45:14.125Z,19.35
2023-04-18T11:47:43.073Z,16.45
2023-04-18T11:50:13.111Z,19.83
2023-04-18T11:52:42.615Z,12.73
2023-04-18T11:55:17.963Z,24.83
2023-04-18T11:57:58.929Z,18.80
2023-04-18T12:00:40.245Z,17.35
2023-04-18T12:03:16.312Z,20.75
2023-04-18T12:05:45.874Z,19.23
2023-04-18T12:08:20.730Z,21.58
2023-04-18T12:10:52.395Z,21.35
2023-04-18T12:13:25.041Z,22.65
2023-04-18T12:15:53.822Z,22.73
2023-04-18T12:18:21.615Z,27.40
2023-04-18T12:20:52.515Z,31.42
2023-04-18T12:23:29.925Z,19.55
2023-04-18T12:26:04.997Z,30.92
2023-04-18T12:28:32.928Z,22.75
2023-04-18T12:31:00.836Z,17.73
2023-04-18T12:33:28.318Z,21.08
2023-04-18T12:35:56.211Z,18.52
2023-04-18T12:38:24.426Z,18.15
2023-04-18T12:40:52.561Z,25.85
2023-04-18T12:43:20.262Z,22.80
2023-04-18T12:45:47.557Z,24.15
2023-04-18T12:48:14.939Z,10.63
2023-04-18T12:50:42.199Z,26.42
2023-04-18T12:53:09.480Z,19.27
2023-04-18T12:55:36.991Z,22.50
2023-04-18T12:58:04.150Z,31.90
2023-04-18T13:00:33.044Z,24.00
2023-04-18T13:03:00.939Z,29.58
2023-04-18T13:05:32.804Z,23.00
2023-04-18T13:12:58.916Z,24.05
2023-04-18T13:15:27.629Z,22.75
2023-04-18T13:17:56.766Z,19.10
2023-04-18T13:20:24.521Z,25.67
2023-04-18T13:22:51.647Z,41.78
2023-04-18T13:25:18.986Z,19.08
2023-04-18T13:27:47.247Z,27.15
2023-04-18T13:30:14.559Z,22.42
2023-04-18T13:32:44.057Z,21.13
2023-04-18T13:35:11.778Z,19.90
2023-04-18T13:37:39.784Z,16.27
2023-04-18T13:40:08.032Z,17.00
2023-04-18T13:42:37.048Z,16.58
2023-04-18T13:45:04.571Z,25.40
2023-04-18T13:47:33.796Z,25.05
2023-04-18T13:50:01.155Z,23.08
2023-04-18T13:52:31.459Z,24.23
2023-04-18T13:54:58.762Z,19.45
2023-04-18T13:57:26.050Z,16.88
2023-04-18T13:59:53.275Z,20.73
2023-04-18T14:02:20.723Z,18.65
2023-04-18T14:04:48.634Z,25.85
2023-04-18T14:07:16.634Z,21.08
2023-04-18T14:09:45.144Z,19.30
2023-04-18T14:12:12.430Z,21.23
2023-04-18T14:14:39.565Z,14.52
2023-04-18T14:17:06.829Z,13.57
2023-04-18T14:19:34.966Z,17.35
2023-04-18T14:22:02.086Z,16.02
2023-04-18T14:24:29.256Z,13.90
2023-04-18T14:26:56.444Z,17.92
2023-04-18T14:29:23.610Z,14.63
2023-04-18T14:31:50.870Z,11.48
2023-04-18T14:34:18.002Z,18.40
2023-04-18T14:36:45.426Z,15.55
2023-04-18T14:39:13.298Z,15.93
2023-04-18T14:41:40.618Z,19.58
2023-04-18T14:44:07.747Z,12.65
2023-04-18T14:46:35.008Z,13.07
2023-04-18T14:49:02.138Z,16.60
2023-04-18T14:51:29.328Z,16.67
2023-04-18T14:53:56.629Z,20.98
2023-04-18T14:56:24.475Z,21.38
2023-04-18T14:58:51.664Z,14.38
2023-04-18T15:01:19.026Z,18.38
2023-04-18T15:03:46.407Z,17.23
2023-04-18T15:06:13.754Z,19.67
2023-04-18T15:08:41.298Z,15.95
2023-04-18T15:11:08.776Z,17.80
2023-04-18T15:13:36.442Z,17.77
2023-04-18T15:16:03.811Z,47.83
2023-04-18T15:18:31.014Z,17.85
2023-04-18T15:21:01.396Z,24.40
2023-04-18T15:23:28.624Z,19.08
2023-04-18T15:25:56.588Z,19.73
2023-04-18T15:28:23.786Z,16.90
2023-04-18T15:30:51.040Z,24.90
2023-04-18T15:33:20.501Z,17.27
2023-04-18T15:35:48.093Z,21.27
2023-04-18T15:38:15.533Z,20.75
2023-04-18T15:40:43.686Z,15.07
2023-04-18T15:43:11.003Z,17.63
2023-04-18T15:45:38.333Z,19.55
2023-04-18T15:48:05.963Z,20.50
2023-04-18T15:50:33.978Z,17.30
2023-04-18T15:53:02.612Z,11.65
2023-04-18T15:55:30.186Z,20.15
2023-04-18T15:57:57.600Z,12.43
2023-04-18T16:00:25.153Z,23.05
2023-04-18T16:02:52.719Z,19.13
2023-04-18T16:05:20.302Z,12.88
2023-04-18T16:07:47.504Z,23.50
2023-04-18T16:10:15.422Z,15.95
2023-04-18T16:12:43.033Z,10.68
2023-04-18T16:15:10.853Z,15.32
2023-04-18T16:17:38.499Z,18.38
2023-04-18T16:20:08.279Z,21.42
2023-04-18T16:22:36.121Z,11.18
2023-04-18T16:25:04.517Z,16.40
2023-04-18T16:27:32.706Z,16.25
2023-04-18T16:29:59.994Z,13.55
2023-04-18T16:32:27.484Z,19.30
2023-04-18T16:34:54.843Z,23.17
2023-04-18T16:37:22.234Z,14.07
2023-04-18T16:39:49.496Z,13.82
2023-04-18T16:42:16.699Z,19.17
2023-04-18T16:44:45.396Z,20.55
2023-04-18T16:47:31.473Z,25.45
2023-04-18T16:49:58.812Z,15.65
2023-04-18T16:52:25.947Z,17.08
2023-04-18T16:54:53.207Z,22.15
2023-04-18T16:57:20.440Z,14.25
2023-04-18T16:59:47.587Z,19.75
2023-04-18T17:02:14.875Z,18.80
2023-04-18T17:04:42.307Z,16.73
2023-04-18T17:07:09.488Z,21.77
2023-04-18T17:09:36.685Z,15.85
2023-04-18T17:12:04.015Z,19.48
2023-04-18T17:14:31.124Z,22.63
2023-04-18T17:16:58.250Z,18.98
2023-04-18T17:19:26.357Z,18.50
2023-04-18T17:21:53.655Z,19.83
2023-04-18T17:24:22.633Z,16.80
2023-04-18T17:26:50.008Z,25.38
2023-04-18T17:29:18.467Z,21.40
2023-04-18T17:31:45.747Z,24.92
2023-04-18T17:34:13.040Z,17.45
2023-04-18T17:36:40.323Z,17.67
2023-04-18T17:39:07.510Z,19.85
2023-04-18T17:41:38.613Z,24.15
2023-04-18T17:44:07.720Z,17.77
2023-04-18T17:46:35.246Z,18.67
2023-04-18T17:49:02.648Z,13.35
2023-04-18T17:51:29.901Z,22.52
2023-04-18T17:53:57.377Z,16.15
2023-04-18T17:56:24.755Z,14.35
2023-04-18T17:58:52.937Z,20.10
2023-04-18T18:01:22.172Z,28.92
2023-04-18T18:03:49.872Z,20.67
2023-04-18T18:06:17.278Z,16.83
2023-04-18T18:08:44.520Z,17.25
2023-04-18T18:11:11.909Z,16.92
2023-04-18T18:13:39.272Z,18.23
2023-04-18T18:16:07.704Z,21.83
2023-04-18T18:18:35.414Z,17.77
2023-04-18T18:21:02.683Z,15.32
2023-04-18T18:23:29.877Z,20.05
2023-04-18T18:25:57.127Z,24.17
2023-04-18T18:28:24.396Z,25.10
2023-04-18T18:30:51.753Z,19.65
2023-04-18T18:33:19.181Z,21.80
2023-04-18T18:35:46.453Z,16.92
2023-04-18T18:38:14.065Z,16.73
2023-04-18T18:40:41.225Z,16.50
2023-04-18T18:43:08.412Z,15.18
2023-04-18T18:45:35.658Z,16.33
2023-04-18T18:48:04.023Z,17.88
2023-04-18T18:50:31.396Z,24.25
2023-04-18T18:52:59.637Z,13.98
2023-04-18T18:55:26.883Z,15.18
2023-04-18T18:57:54.128Z,15.15
2023-04-18T19:00:21.565Z,10.27
2023-04-18T19:02:48.817Z,15.68
2023-04-18T19:05:17.463Z,17.88
2023-04-18T19:07:44.736Z,19.30
2023-04-18T19:10:11.995Z,18.55
2023-04-18T19:12:39.270Z,19.10
2023-04-18T19:15:07.032Z,15.93
2023-04-18T19:17:35.938Z,15.15
2023-04-18T19:20:03.605Z,26.55
2023-04-18T19:22:33.333Z,15.38
2023-04-18T19:25:00.985Z,13.43
2023-04-18T19:27:28.453Z,17.70
2023-04-18T19:29:55.843Z,15.27
2023-04-18T19:32:23.145Z,13.13
2023-04-18T19:34:51.552Z,20.60
2023-04-18T19:37:18.715Z,14.23
2023-04-18T19:39:45.836Z,15.55
2023-04-18T19:42:13.047Z,16.05
2023-04-18T19:44:40.309Z,21.85
2023-04-18T19:47:07.510Z,13.35
2023-04-18T19:49:35.583Z,17.13
2023-04-18T19:52:02.741Z,19.98
2023-04-18T19:54:33.435Z,20.95
2023-04-18T19:59:28.540Z,16.75
2023-04-18T20:01:57.221Z,19.70
2023-04-18T20:04:26.057Z,16.08
2023-04-18T20:06:54.106Z,11.95
2023-04-18T20:09:21.449Z,23.83
2023-04-18T20:11:49.103Z,11.52
2023-04-18T20:14:16.670Z,15.13
2023-04-18T20:16:45.901Z,13.63
2023-04-18T20:19:13.997Z,13.05
2023-04-18T20:21:41.492Z,14.95
2023-04-18T20:24:09.792Z,13.95
2023-04-18T20:26:37.269Z,16.13
2023-04-18T20:29:04.519Z,17.52
2023-04-18T20:31:31.639Z,17.85
2023-04-18T20:33:58.968Z,12.43
2023-04-18T20:36:26.148Z,19.17
2023-04-18T20:38:53.273Z,15.27
2023-04-18T20:41:24.263Z,16.05
2023-04-18T20:43:53.822Z,13.13
2023-04-18T20:46:24.517Z,19.80
2023-04-18T20:48:52.361Z,16.33
2023-04-18T20:51:19.542Z,22.83
2023-04-18T20:53:46.920Z,18.38
2023-04-18T20:56:14.042Z,21.25
2023-04-18T20:58:42.064Z,17.77
2023-04-18T21:01:09.269Z,14.57
2023-04-18T21:03:36.682Z,17.08
2023-04-18T21:06:04.008Z,17.17
2023-04-18T21:08:31.853Z,13.80
2023-04-18T21:10:59.015Z,23.67
2023-04-18T21:13:26.157Z,16.77
2023-04-18T21:15:53.393Z,21.05
2023-04-18T21:18:20.951Z,23.27
2023-04-18T21:20:48.149Z,16.70
2023-04-18T21:23:15.484Z,15.40
2023-04-18T21:25:42.600Z,17.48
2023-04-18T21:28:09.723Z,19.55
2023-04-18T21:30:36.916Z,12.13
2023-04-18T21:33:04.544Z,19.15
2023-04-18T21:35:32.085Z,12.13
2023-04-18T21:37:59.557Z,14.70
2023-04-18T21:40:26.996Z,13.15
2023-04-18T21:42:54.245Z,13.05
2023-04-18T21:45:21.625Z,11.75
2023-04-18T21:47:49.750Z,22.52
2023-04-18T21:50:17.034Z,15.82
2023-04-18T21:52:44.207Z,15.68
2023-04-18T21:55:11.462Z,24.10
2023-04-18T21:57:38.656Z,19.35
2023-04-18T22:00:09.264Z,27.58
2023-04-18T22:02:37.797Z,17.13
2023-04-18T22:05:05.750Z,19.80
2023-04-18T22:07:34.185Z,16.08
2023-04-18T22:10:03.695Z,20.15
2023-04-18T22:12:32.313Z,20.17
2023-04-18T22:14:59.480Z,21.85
2023-04-18T22:17:26.654Z,19.85
2023-04-18T22:19:54.869Z,21.85
2023-04-18T22:22:22.052Z,15.38
2023-04-18T22:24:49.264Z,11.60
2023-04-18T22:27:16.470Z,13.70
2023-04-18T22:29:43.567Z,16.30
2023-04-18T22:32:10.755Z,13.43
2023-04-18T22:34:37.892Z,12.43
2023-04-18T22:37:05.086Z,16.33
2023-04-18T22:39:32.324Z,15.25
2023-04-18T22:41:59.454Z,14.85
2023-04-18T22:44:26.660Z,13.70
2023-04-18T22:46:54.845Z,12.57
2023-04-18T22:49:22.432Z,17.05
2023-04-18T22:51:49.780Z,16.45
2023-04-18T22:54:17.138Z,11.82
2023-04-18T22:56:44.530Z,14.20
2023-04-18T22:59:11.736Z,15.57
2023-04-18T23:01:38.906Z,15.32
2023-04-18T23:04:06.682Z,14.93
2023-04-18T23:06:34.113Z,17.55
2023-04-18T23:09:01.251Z,17.48
2023-04-18T23:11:28.632Z,14.40
2023-04-18T23:13:55.817Z,12.13
2023-04-18T23:16:23.269Z,13.25
2023-04-18T23:18:50.473Z,17.23
2023-04-18T23:21:18.110Z,17.23
2023-04-18T23:23:45.292Z,14.80
2023-04-18T23:26:16.187Z,13.68
2023-04-18T23:28:43.732Z,14.00
2023-04-18T23:31:11.177Z,14.05
2023-04-18T23:33:38.547Z,14.63
2023-04-18T23:36:06.634Z,16.33
2023-04-18T23:38:33.864Z,15.27
2023-04-18T23:41:01.031Z,16.90
2023-04-18T23:43:28.129Z,12.38
2023-04-18T23:45:55.292Z,15.82
2023-04-18T23:48:22.675Z,11.32
2023-04-18T23:50:52.246Z,19.25
2023-04-18T23:53:21.146Z,16.20
2023-04-18T23:55:50.670Z,20.55
2023-04-18T23:58:18.349Z,13.15
